Bonhill, United Kingdom
Current Conditions -  °F | °C
As of 4:20 PM on Friday 19 Dec 2014 (Local Time) from EGPF Reporting Station
Broken Clouds Broken Clouds  
Wind Chill: 36°   Ceiling: 3400
Heat Index: 43°   Visibility: 6mi
Dew Point: 36°   Wind: 14mph
Humidity: 76%   Direction: 280°W
Pressure: 29.71"   Gusts: NA
Location:  55.98°N, 4.56°W
Report Text: EGPF 191620Z AUTO 28012KT 9999 BKN034/// //////TCU 06/02 Q1006
Loading
Personal Weather Stations






























Interactive Weather Map New forecast layout! Learn more

10-Day Weather Forecast

Advertisements
Track Severe Weather on mobile